sensor_id;sensor_type;location;lat;lon;timestamp;P1;durP1;ratioP1;P2;durP2;ratioP2
76786;SDS011;65739;51.482;5.702;2023-04-15T00:01:05;8.27;;;3.90;;
76786;SDS011;65739;51.482;5.702;2023-04-15T00:03:30;12.90;;;5.13;;
76786;SDS011;65739;51.482;5.702;2023-04-15T00:05:58;16.95;;;5.07;;
76786;SDS011;65739;51.482;5.702;2023-04-15T00:08:23;11.38;;;5.15;;
76786;SDS011;65739;51.482;5.702;2023-04-15T00:10:49;12.30;;;5.18;;
76786;SDS011;65739;51.482;5.702;2023-04-15T00:13:15;12.75;;;4.63;;
76786;SDS011;65739;51.482;5.702;2023-04-15T00:15:41;12.38;;;5.00;;
76786;SDS011;65739;51.482;5.702;2023-04-15T00:18:07;10.00;;;4.53;;
76786;SDS011;65739;51.482;5.702;2023-04-15T00:20:33;10.18;;;4.90;;
76786;SDS011;65739;51.482;5.702;2023-04-15T00:22:59;10.35;;;5.05;;
76786;SDS011;65739;51.482;5.702;2023-04-15T00:25:26;9.27;;;5.30;;
76786;SDS011;65739;51.482;5.702;2023-04-15T00:27:52;12.68;;;5.38;;
76786;SDS011;65739;51.482;5.702;2023-04-15T00:30:17;9.73;;;5.40;;
76786;SDS011;65739;51.482;5.702;2023-04-15T00:32:43;9.00;;;5.40;;
76786;SDS011;65739;51.482;5.702;2023-04-15T00:35:09;9.48;;;5.40;;
76786;SDS011;65739;51.482;5.702;2023-04-15T00:37:35;12.98;;;5.63;;
76786;SDS011;65739;51.482;5.702;2023-04-15T00:40:01;13.93;;;6.45;;
76786;SDS011;65739;51.482;5.702;2023-04-15T00:42:29;14.18;;;5.05;;
76786;SDS011;65739;51.482;5.702;2023-04-15T00:44:55;11.02;;;5.40;;
76786;SDS011;65739;51.482;5.702;2023-04-15T00:47:21;16.92;;;5.47;;
76786;SDS011;65739;51.482;5.702;2023-04-15T00:49:47;11.25;;;5.80;;
76786;SDS011;65739;51.482;5.702;2023-04-15T00:52:12;11.13;;;5.60;;
76786;SDS011;65739;51.482;5.702;2023-04-15T00:54:38;9.82;;;5.10;;
76786;SDS011;65739;51.482;5.702;2023-04-15T00:57:04;7.80;;;5.82;;
76786;SDS011;65739;51.482;5.702;2023-04-15T00:59:31;14.52;;;5.80;;
76786;SDS011;65739;51.482;5.702;2023-04-15T01:01:57;11.50;;;6.07;;
76786;SDS011;65739;51.482;5.702;2023-04-15T01:04:24;11.45;;;6.00;;
76786;SDS011;65739;51.482;5.702;2023-04-15T01:06:49;8.65;;;5.70;;
76786;SDS011;65739;51.482;5.702;2023-04-15T01:09:16;12.38;;;5.88;;
76786;SDS011;65739;51.482;5.702;2023-04-15T01:11:42;11.80;;;5.90;;
76786;SDS011;65739;51.482;5.702;2023-04-15T01:14:08;10.68;;;5.80;;
76786;SDS011;65739;51.482;5.702;2023-04-15T01:16:35;9.90;;;5.53;;
76786;SDS011;65739;51.482;5.702;2023-04-15T01:19:03;11.43;;;5.30;;
76786;SDS011;65739;51.482;5.702;2023-04-15T01:21:37;14.38;;;5.65;;
76786;SDS011;65739;51.482;5.702;2023-04-15T01:24:05;11.90;;;5.82;;
76786;SDS011;65739;51.482;5.702;2023-04-15T01:26:35;10.57;;;6.00;;
76786;SDS011;65739;51.482;5.702;2023-04-15T01:29:02;12.45;;;5.35;;
76786;SDS011;65739;51.482;5.702;2023-04-15T01:31:28;11.23;;;5.35;;
76786;SDS011;65739;51.482;5.702;2023-04-15T01:33:53;15.60;;;5.97;;
76786;SDS011;65739;51.482;5.702;2023-04-15T01:36:19;9.43;;;5.93;;
76786;SDS011;65739;51.482;5.702;2023-04-15T01:38:44;7.75;;;5.60;;
76786;SDS011;65739;51.482;5.702;2023-04-15T01:41:10;11.38;;;6.10;;
76786;SDS011;65739;51.482;5.702;2023-04-15T01:43:37;12.27;;;5.80;;
76786;SDS011;65739;51.482;5.702;2023-04-15T01:46:02;10.27;;;6.32;;
76786;SDS011;65739;51.482;5.702;2023-04-15T01:48:28;14.40;;;6.47;;
76786;SDS011;65739;51.482;5.702;2023-04-15T01:50:54;14.80;;;6.80;;
76786;SDS011;65739;51.482;5.702;2023-04-15T01:53:22;11.55;;;5.95;;
76786;SDS011;65739;51.482;5.702;2023-04-15T01:55:48;11.30;;;6.25;;
76786;SDS011;65739;51.482;5.702;2023-04-15T01:58:14;13.68;;;6.55;;
76786;SDS011;65739;51.482;5.702;2023-04-15T02:00:39;16.10;;;6.25;;
76786;SDS011;65739;51.482;5.702;2023-04-15T02:03:05;18.13;;;6.47;;
76786;SDS011;65739;51.482;5.702;2023-04-15T02:05:31;11.55;;;6.43;;
76786;SDS011;65739;51.482;5.702;2023-04-15T02:07:56;11.85;;;6.65;;
76786;SDS011;65739;51.482;5.702;2023-04-15T02:10:22;13.00;;;6.22;;
76786;SDS011;65739;51.482;5.702;2023-04-15T02:12:47;11.73;;;6.53;;
76786;SDS011;65739;51.482;5.702;2023-04-15T02:15:13;12.18;;;6.53;;
76786;SDS011;65739;51.482;5.702;2023-04-15T02:17:39;14.27;;;7.30;;
76786;SDS011;65739;51.482;5.702;2023-04-15T02:20:05;14.15;;;6.57;;
76786;SDS011;65739;51.482;5.702;2023-04-15T02:22:32;13.45;;;7.72;;
76786;SDS011;65739;51.482;5.702;2023-04-15T02:24:58;12.38;;;6.78;;
76786;SDS011;65739;51.482;5.702;2023-04-15T02:27:24;12.30;;;7.13;;
76786;SDS011;65739;51.482;5.702;2023-04-15T02:29:50;14.93;;;7.28;;
76786;SDS011;65739;51.482;5.702;2023-04-15T02:32:16;11.43;;;7.68;;
76786;SDS011;65739;51.482;5.702;2023-04-15T02:34:41;12.93;;;7.13;;
76786;SDS011;65739;51.482;5.702;2023-04-15T02:37:10;15.15;;;7.88;;
76786;SDS011;65739;51.482;5.702;2023-04-15T02:39:37;14.07;;;8.33;;
76786;SDS011;65739;51.482;5.702;2023-04-15T02:42:03;12.93;;;7.22;;
76786;SDS011;65739;51.482;5.702;2023-04-15T02:44:30;14.60;;;7.60;;
76786;SDS011;65739;51.482;5.702;2023-04-15T02:46:56;11.43;;;7.15;;
76786;SDS011;65739;51.482;5.702;2023-04-15T02:49:22;10.30;;;6.78;;
76786;SDS011;65739;51.482;5.702;2023-04-15T02:51:48;14.30;;;7.47;;
76786;SDS011;65739;51.482;5.702;2023-04-15T02:54:18;13.55;;;7.03;;
76786;SDS011;65739;51.482;5.702;2023-04-15T02:56:44;14.20;;;7.15;;
76786;SDS011;65739;51.482;5.702;2023-04-15T02:59:13;11.80;;;6.93;;
76786;SDS011;65739;51.482;5.702;2023-04-15T03:01:39;10.57;;;7.00;;
76786;SDS011;65739;51.482;5.702;2023-04-15T03:04:05;11.52;;;7.03;;
76786;SDS011;65739;51.482;5.702;2023-04-15T03:06:32;11.35;;;7.47;;
76786;SDS011;65739;51.482;5.702;2023-04-15T03:08:58;13.25;;;7.35;;
76786;SDS011;65739;51.482;5.702;2023-04-15T03:11:24;13.88;;;6.70;;
76786;SDS011;65739;51.482;5.702;2023-04-15T03:13:51;15.05;;;7.45;;
76786;SDS011;65739;51.482;5.702;2023-04-15T03:16:17;13.00;;;8.02;;
76786;SDS011;65739;51.482;5.702;2023-04-15T03:18:42;10.93;;;7.68;;
76786;SDS011;65739;51.482;5.702;2023-04-15T03:21:08;12.38;;;7.63;;
76786;SDS011;65739;51.482;5.702;2023-04-15T03:23:33;11.13;;;7.32;;
76786;SDS011;65739;51.482;5.702;2023-04-15T03:26:02;11.02;;;6.97;;
76786;SDS011;65739;51.482;5.702;2023-04-15T03:28:29;9.90;;;6.95;;
76786;SDS011;65739;51.482;5.702;2023-04-15T03:30:55;15.95;;;7.32;;
76786;SDS011;65739;51.482;5.702;2023-04-15T03:33:20;14.75;;;8.07;;
76786;SDS011;65739;51.482;5.702;2023-04-15T03:35:46;16.35;;;7.80;;
76786;SDS011;65739;51.482;5.702;2023-04-15T03:38:11;14.35;;;7.93;;
76786;SDS011;65739;51.482;5.702;2023-04-15T03:40:37;11.77;;;7.82;;
76786;SDS011;65739;51.482;5.702;2023-04-15T03:43:05;12.02;;;7.88;;
76786;SDS011;65739;51.482;5.702;2023-04-15T03:45:30;13.38;;;8.02;;
76786;SDS011;65739;51.482;5.702;2023-04-15T03:47:56;13.65;;;7.70;;
76786;SDS011;65739;51.482;5.702;2023-04-15T03:50:22;11.60;;;7.78;;
76786;SDS011;65739;51.482;5.702;2023-04-15T03:52:47;13.48;;;8.20;;
76786;SDS011;65739;51.482;5.702;2023-04-15T03:55:13;13.02;;;8.48;;
76786;SDS011;65739;51.482;5.702;2023-04-15T03:57:39;16.70;;;8.43;;
76786;SDS011;65739;51.482;5.702;2023-04-15T04:00:05;14.82;;;8.30;;
76786;SDS011;65739;51.482;5.702;2023-04-15T04:02:33;14.35;;;8.48;;
76786;SDS011;65739;51.482;5.702;2023-04-15T04:04:59;12.20;;;8.50;;
76786;SDS011;65739;51.482;5.702;2023-04-15T04:07:24;14.43;;;7.88;;
76786;SDS011;65739;51.482;5.702;2023-04-15T04:09:50;14.52;;;8.35;;
76786;SDS011;65739;51.482;5.702;2023-04-15T04:12:16;13.07;;;8.05;;
76786;SDS011;65739;51.482;5.702;2023-04-15T04:14:41;12.32;;;8.32;;
76786;SDS011;65739;51.482;5.702;2023-04-15T04:17:07;10.23;;;7.78;;
76786;SDS011;65739;51.482;5.702;2023-04-15T04:19:33;12.80;;;8.52;;
76786;SDS011;65739;51.482;5.702;2023-04-15T04:21:58;14.15;;;8.02;;
76786;SDS011;65739;51.482;5.702;2023-04-15T04:24:24;13.52;;;8.15;;
76786;SDS011;65739;51.482;5.702;2023-04-15T04:26:50;14.32;;;8.60;;
76786;SDS011;65739;51.482;5.702;2023-04-15T04:29:15;13.13;;;8.63;;
76786;SDS011;65739;51.482;5.702;2023-04-15T04:31:41;15.57;;;8.95;;
76786;SDS011;65739;51.482;5.702;2023-04-15T04:34:07;13.07;;;8.55;;
76786;SDS011;65739;51.482;5.702;2023-04-15T04:36:32;15.07;;;9.13;;
76786;SDS011;65739;51.482;5.702;2023-04-15T04:38:58;13.52;;;8.65;;
76786;SDS011;65739;51.482;5.702;2023-04-15T04:41:23;14.00;;;9.25;;
76786;SDS011;65739;51.482;5.702;2023-04-15T04:43:49;18.08;;;10.00;;
76786;SDS011;65739;51.482;5.702;2023-04-15T04:46:14;13.57;;;8.50;;
76786;SDS011;65739;51.482;5.702;2023-04-15T04:48:40;15.10;;;8.98;;
76786;SDS011;65739;51.482;5.702;2023-04-15T04:51:05;11.75;;;8.65;;
76786;SDS011;65739;51.482;5.702;2023-04-15T04:53:32;13.43;;;8.75;;
76786;SDS011;65739;51.482;5.702;2023-04-15T04:55:57;12.82;;;8.98;;
76786;SDS011;65739;51.482;5.702;2023-04-15T04:58:23;15.38;;;9.23;;
76786;SDS011;65739;51.482;5.702;2023-04-15T05:00:49;12.88;;;9.77;;
76786;SDS011;65739;51.482;5.702;2023-04-15T05:03:15;14.10;;;8.52;;
76786;SDS011;65739;51.482;5.702;2023-04-15T05:05:40;14.40;;;8.52;;
76786;SDS011;65739;51.482;5.702;2023-04-15T05:08:06;15.93;;;9.40;;
76786;SDS011;65739;51.482;5.702;2023-04-15T05:10:31;14.45;;;9.15;;
76786;SDS011;65739;51.482;5.702;2023-04-15T05:12:57;16.63;;;9.57;;
76786;SDS011;65739;51.482;5.702;2023-04-15T05:15:23;15.38;;;9.45;;
76786;SDS011;65739;51.482;5.702;2023-04-15T05:17:49;15.10;;;9.20;;
76786;SDS011;65739;51.482;5.702;2023-04-15T05:20:15;17.92;;;9.60;;
76786;SDS011;65739;51.482;5.702;2023-04-15T05:22:41;14.43;;;9.02;;
76786;SDS011;65739;51.482;5.702;2023-04-15T05:25:06;16.13;;;9.57;;
76786;SDS011;65739;51.482;5.702;2023-04-15T05:27:32;15.50;;;9.75;;
76786;SDS011;65739;51.482;5.702;2023-04-15T05:29:58;18.50;;;9.65;;
76786;SDS011;65739;51.482;5.702;2023-04-15T05:32:23;15.95;;;9.77;;
76786;SDS011;65739;51.482;5.702;2023-04-15T05:34:49;13.68;;;9.50;;
76786;SDS011;65739;51.482;5.702;2023-04-15T05:37:15;16.20;;;9.93;;
76786;SDS011;65739;51.482;5.702;2023-04-15T05:39:40;17.98;;;9.50;;
76786;SDS011;65739;51.482;5.702;2023-04-15T05:42:06;13.75;;;9.55;;
76786;SDS011;65739;51.482;5.702;2023-04-15T05:44:32;14.02;;;9.10;;
76786;SDS011;65739;51.482;5.702;2023-04-15T05:46:57;17.92;;;9.80;;
76786;SDS011;65739;51.482;5.702;2023-04-15T05:49:23;15.75;;;9.45;;
76786;SDS011;65739;51.482;5.702;2023-04-15T05:51:49;14.20;;;9.63;;
76786;SDS011;65739;51.482;5.702;2023-04-15T05:54:15;15.23;;;9.57;;
76786;SDS011;65739;51.482;5.702;2023-04-15T05:56:41;14.25;;;9.82;;
76786;SDS011;65739;51.482;5.702;2023-04-15T05:59:06;15.45;;;9.63;;
76786;SDS011;65739;51.482;5.702;2023-04-15T06:01:32;15.27;;;9.15;;
76786;SDS011;65739;51.482;5.702;2023-04-15T06:03:58;16.25;;;9.20;;
76786;SDS011;65739;51.482;5.702;2023-04-15T06:06:24;15.55;;;8.82;;
76786;SDS011;65739;51.482;5.702;2023-04-15T06:08:51;15.05;;;9.43;;
76786;SDS011;65739;51.482;5.702;2023-04-15T06:11:17;13.95;;;9.10;;
76786;SDS011;65739;51.482;5.702;2023-04-15T06:13:45;11.98;;;8.98;;
76786;SDS011;65739;51.482;5.702;2023-04-15T06:16:10;12.43;;;9.02;;
76786;SDS011;65739;51.482;5.702;2023-04-15T06:18:36;12.48;;;9.13;;
76786;SDS011;65739;51.482;5.702;2023-04-15T06:21:01;12.95;;;8.77;;
76786;SDS011;65739;51.482;5.702;2023-04-15T06:23:27;14.38;;;9.40;;
76786;SDS011;65739;51.482;5.702;2023-04-15T06:25:52;16.02;;;9.38;;
76786;SDS011;65739;51.482;5.702;2023-04-15T06:28:18;15.07;;;9.10;;
76786;SDS011;65739;51.482;5.702;2023-04-15T06:30:43;12.40;;;8.75;;
76786;SDS011;65739;51.482;5.702;2023-04-15T06:33:09;12.45;;;8.73;;
76786;SDS011;65739;51.482;5.702;2023-04-15T06:35:35;12.95;;;8.95;;
76786;SDS011;65739;51.482;5.702;2023-04-15T06:38:00;11.95;;;9.25;;
76786;SDS011;65739;51.482;5.702;2023-04-15T06:40:26;13.88;;;9.75;;
76786;SDS011;65739;51.482;5.702;2023-04-15T06:42:52;13.05;;;9.10;;
76786;SDS011;65739;51.482;5.702;2023-04-15T06:45:17;13.40;;;9.35;;
76786;SDS011;65739;51.482;5.702;2023-04-15T06:47:43;13.82;;;9.50;;
76786;SDS011;65739;51.482;5.702;2023-04-15T06:50:09;12.25;;;9.23;;
76786;SDS011;65739;51.482;5.702;2023-04-15T06:52:35;12.55;;;8.43;;
76786;SDS011;65739;51.482;5.702;2023-04-15T06:55:01;15.57;;;9.10;;
76786;SDS011;65739;51.482;5.702;2023-04-15T06:57:26;14.02;;;9.95;;
76786;SDS011;65739;51.482;5.702;2023-04-15T06:59:52;12.23;;;8.68;;
76786;SDS011;65739;51.482;5.702;2023-04-15T07:02:18;13.20;;;8.40;;
76786;SDS011;65739;51.482;5.702;2023-04-15T07:04:44;13.68;;;9.23;;
76786;SDS011;65739;51.482;5.702;2023-04-15T07:07:10;14.18;;;9.18;;
76786;SDS011;65739;51.482;5.702;2023-04-15T07:09:36;12.60;;;7.85;;
76786;SDS011;65739;51.482;5.702;2023-04-15T07:12:02;15.73;;;8.85;;
76786;SDS011;65739;51.482;5.702;2023-04-15T07:14:28;12.00;;;8.65;;
76786;SDS011;65739;51.482;5.702;2023-04-15T07:16:54;14.13;;;8.35;;
76786;SDS011;65739;51.482;5.702;2023-04-15T07:19:20;10.50;;;7.93;;
76786;SDS011;65739;51.482;5.702;2023-04-15T07:21:46;11.95;;;8.35;;
76786;SDS011;65739;51.482;5.702;2023-04-15T07:24:11;11.18;;;7.82;;
76786;SDS011;65739;51.482;5.702;2023-04-15T07:26:40;10.25;;;8.23;;
76786;SDS011;65739;51.482;5.702;2023-04-15T07:29:06;12.05;;;8.10;;
76786;SDS011;65739;51.482;5.702;2023-04-15T07:31:31;14.18;;;8.50;;
76786;SDS011;65739;51.482;5.702;2023-04-15T07:33:57;11.45;;;8.13;;
76786;SDS011;65739;51.482;5.702;2023-04-15T07:36:23;12.45;;;8.95;;
76786;SDS011;65739;51.482;5.702;2023-04-15T07:38:49;12.18;;;7.72;;
76786;SDS011;65739;51.482;5.702;2023-04-15T07:41:14;11.70;;;8.18;;
76786;SDS011;65739;51.482;5.702;2023-04-15T07:43:40;11.45;;;7.93;;
76786;SDS011;65739;51.482;5.702;2023-04-15T07:46:05;8.45;;;7.30;;
76786;SDS011;65739;51.482;5.702;2023-04-15T07:48:31;11.60;;;7.47;;
76786;SDS011;65739;51.482;5.702;2023-04-15T07:50:57;11.35;;;6.75;;
76786;SDS011;65739;51.482;5.702;2023-04-15T07:53:23;11.10;;;7.75;;
76786;SDS011;65739;51.482;5.702;2023-04-15T07:55:49;10.32;;;7.60;;
76786;SDS011;65739;51.482;5.702;2023-04-15T07:58:14;13.05;;;7.68;;
76786;SDS011;65739;51.482;5.702;2023-04-15T08:00:40;8.85;;;6.85;;
76786;SDS011;65739;51.482;5.702;2023-04-15T08:03:05;7.50;;;6.65;;
76786;SDS011;65739;51.482;5.702;2023-04-15T08:07:57;7.07;;;5.25;;
76786;SDS011;65739;51.482;5.702;2023-04-15T08:10:22;7.95;;;5.57;;
76786;SDS011;65739;51.482;5.702;2023-04-15T08:12:48;7.40;;;5.57;;
76786;SDS011;65739;51.482;5.702;2023-04-15T08:15:13;8.57;;;5.20;;
76786;SDS011;65739;51.482;5.702;2023-04-15T08:17:39;6.80;;;4.85;;
76786;SDS011;65739;51.482;5.702;2023-04-15T08:20:05;5.05;;;3.85;;
76786;SDS011;65739;51.482;5.702;2023-04-15T08:22:31;6.45;;;4.78;;
76786;SDS011;65739;51.482;5.702;2023-04-15T08:24:56;5.88;;;4.40;;
76786;SDS011;65739;51.482;5.702;2023-04-15T08:27:22;5.13;;;3.88;;
76786;SDS011;65739;51.482;5.702;2023-04-15T08:29:47;4.95;;;3.80;;
76786;SDS011;65739;51.482;5.702;2023-04-15T08:32:13;7.00;;;4.53;;
76786;SDS011;65739;51.482;5.702;2023-04-15T08:34:38;5.97;;;3.97;;
76786;SDS011;65739;51.482;5.702;2023-04-15T08:37:04;5.40;;;4.50;;
76786;SDS011;65739;51.482;5.702;2023-04-15T08:39:30;7.35;;;4.50;;
76786;SDS011;65739;51.482;5.702;2023-04-15T08:42:00;6.45;;;4.72;;
76786;SDS011;65739;51.482;5.702;2023-04-15T08:44:32;6.78;;;4.88;;
76786;SDS011;65739;51.482;5.702;2023-04-15T08:47:02;6.72;;;4.75;;
76786;SDS011;65739;51.482;5.702;2023-04-15T08:49:31;7.35;;;4.55;;
76786;SDS011;65739;51.482;5.702;2023-04-15T08:51:58;5.20;;;4.40;;
76786;SDS011;65739;51.482;5.702;2023-04-15T08:54:24;6.70;;;4.43;;
76786;SDS011;65739;51.482;5.702;2023-04-15T08:56:51;6.55;;;4.38;;
76786;SDS011;65739;51.482;5.702;2023-04-15T08:59:18;5.63;;;4.95;;
76786;SDS011;65739;51.482;5.702;2023-04-15T09:01:45;7.85;;;4.65;;
76786;SDS011;65739;51.482;5.702;2023-04-15T09:04:12;6.68;;;4.72;;
76786;SDS011;65739;51.482;5.702;2023-04-15T09:06:38;11.20;;;4.30;;
76786;SDS011;65739;51.482;5.702;2023-04-15T09:09:04;6.85;;;4.32;;
76786;SDS011;65739;51.482;5.702;2023-04-15T09:11:30;5.72;;;4.40;;
76786;SDS011;65739;51.482;5.702;2023-04-15T09:13:56;5.40;;;4.45;;
76786;SDS011;65739;51.482;5.702;2023-04-15T09:16:21;7.95;;;4.20;;
76786;SDS011;65739;51.482;5.702;2023-04-15T09:18:47;5.45;;;3.53;;
76786;SDS011;65739;51.482;5.702;2023-04-15T09:21:14;5.05;;;3.85;;
76786;SDS011;65739;51.482;5.702;2023-04-15T09:23:41;5.30;;;3.65;;
76786;SDS011;65739;51.482;5.702;2023-04-15T09:26:35;5.22;;;3.47;;
76786;SDS011;65739;51.482;5.702;2023-04-15T09:29:11;4.55;;;3.20;;
76786;SDS011;65739;51.482;5.702;2023-04-15T09:31:40;4.95;;;3.10;;
76786;SDS011;65739;51.482;5.702;2023-04-15T09:34:06;4.20;;;3.15;;
76786;SDS011;65739;51.482;5.702;2023-04-15T09:36:37;3.38;;;2.78;;
76786;SDS011;65739;51.482;5.702;2023-04-15T09:39:12;4.95;;;2.72;;
76786;SDS011;65739;51.482;5.702;2023-04-15T09:41:38;3.33;;;2.53;;
76786;SDS011;65739;51.482;5.702;2023-04-15T09:44:04;2.92;;;2.60;;
76786;SDS011;65739;51.482;5.702;2023-04-15T09:46:40;4.45;;;3.00;;
76786;SDS011;65739;51.482;5.702;2023-04-15T09:49:09;3.47;;;2.80;;
76786;SDS011;65739;51.482;5.702;2023-04-15T09:51:36;3.53;;;3.22;;
76786;SDS011;65739;51.482;5.702;2023-04-15T09:54:02;4.80;;;3.20;;
76786;SDS011;65739;51.482;5.702;2023-04-15T09:56:35;3.50;;;2.92;;
76786;SDS011;65739;51.482;5.702;2023-04-15T09:59:07;3.08;;;2.78;;
76786;SDS011;65739;51.482;5.702;2023-04-15T10:01:33;3.55;;;2.85;;
76786;SDS011;65739;51.482;5.702;2023-04-15T10:04:02;3.20;;;2.75;;
76786;SDS011;65739;51.482;5.702;2023-04-15T10:06:29;3.58;;;3.03;;
76786;SDS011;65739;51.482;5.702;2023-04-15T10:08:56;5.22;;;3.33;;
76786;SDS011;65739;51.482;5.702;2023-04-15T10:11:22;5.28;;;2.97;;
76786;SDS011;65739;51.482;5.702;2023-04-15T10:13:49;4.47;;;3.10;;
76786;SDS011;65739;51.482;5.702;2023-04-15T10:16:18;4.72;;;2.72;;
76786;SDS011;65739;51.482;5.702;2023-04-15T10:18:51;3.20;;;2.90;;
76786;SDS011;65739;51.482;5.702;2023-04-15T10:21:19;4.10;;;2.78;;
76786;SDS011;65739;51.482;5.702;2023-04-15T10:23:46;2.33;;;2.13;;
76786;SDS011;65739;51.482;5.702;2023-04-15T10:26:12;2.42;;;1.88;;
76786;SDS011;65739;51.482;5.702;2023-04-15T10:28:39;3.50;;;1.88;;
76786;SDS011;65739;51.482;5.702;2023-04-15T10:31:05;2.20;;;2.10;;
76786;SDS011;65739;51.482;5.702;2023-04-15T10:33:31;2.30;;;1.90;;
76786;SDS011;65739;51.482;5.702;2023-04-15T10:35:58;2.85;;;2.33;;
76786;SDS011;65739;51.482;5.702;2023-04-15T10:38:44;2.80;;;2.10;;
76786;SDS011;65739;51.482;5.702;2023-04-15T10:41:20;2.58;;;2.30;;
76786;SDS011;65739;51.482;5.702;2023-04-15T10:44:02;2.20;;;2.10;;
76786;SDS011;65739;51.482;5.702;2023-04-15T10:51:35;2.90;;;2.20;;
76786;SDS011;65739;51.482;5.702;2023-04-15T10:56:33;2.95;;;2.40;;
76786;SDS011;65739;51.482;5.702;2023-04-15T10:58:58;4.15;;;2.40;;
76786;SDS011;65739;51.482;5.702;2023-04-15T11:07:15;2.00;;;1.90;;
76786;SDS011;65739;51.482;5.702;2023-04-15T11:09:57;2.15;;;1.90;;
76786;SDS011;65739;51.482;5.702;2023-04-15T11:12:22;2.40;;;2.20;;
76786;SDS011;65739;51.482;5.702;2023-04-15T11:17:54;2.40;;;2.03;;
76786;SDS011;65739;51.482;5.702;2023-04-15T11:20:24;2.97;;;2.28;;
76786;SDS011;65739;51.482;5.702;2023-04-15T11:22:51;3.55;;;2.55;;
76786;SDS011;65739;51.482;5.702;2023-04-15T11:25:22;3.05;;;2.30;;
76786;SDS011;65739;51.482;5.702;2023-04-15T11:27:48;2.33;;;2.00;;
76786;SDS011;65739;51.482;5.702;2023-04-15T11:30:18;3.13;;;2.35;;
76786;SDS011;65739;51.482;5.702;2023-04-15T11:32:51;2.50;;;2.10;;
76786;SDS011;65739;51.482;5.702;2023-04-15T11:35:18;3.03;;;2.75;;
76786;SDS011;65739;51.482;5.702;2023-04-15T11:37:44;3.08;;;2.38;;
76786;SDS011;65739;51.482;5.702;2023-04-15T11:40:10;4.47;;;2.22;;
76786;SDS011;65739;51.482;5.702;2023-04-15T11:42:37;1.95;;;1.77;;
76786;SDS011;65739;51.482;5.702;2023-04-15T11:45:07;3.22;;;1.80;;
76786;SDS011;65739;51.482;5.702;2023-04-15T11:47:34;2.90;;;2.10;;
76786;SDS011;65739;51.482;5.702;2023-04-15T11:52:55;3.33;;;2.15;;
76786;SDS011;65739;51.482;5.702;2023-04-15T11:55:22;3.38;;;2.40;;
76786;SDS011;65739;51.482;5.702;2023-04-15T12:00:36;2.25;;;2.05;;
76786;SDS011;65739;51.482;5.702;2023-04-15T12:03:10;2.42;;;2.20;;
76786;SDS011;65739;51.482;5.702;2023-04-15T12:05:36;2.35;;;2.15;;
76786;SDS011;65739;51.482;5.702;2023-04-15T12:11:34;1.90;;;1.80;;
76786;SDS011;65739;51.482;5.702;2023-04-15T12:14:10;2.42;;;1.83;;
76786;SDS011;65739;51.482;5.702;2023-04-15T12:16:43;1.65;;;1.55;;
76786;SDS011;65739;51.482;5.702;2023-04-15T12:19:15;4.53;;;2.00;;
76786;SDS011;65739;51.482;5.702;2023-04-15T12:21:46;2.15;;;1.90;;
76786;SDS011;65739;51.482;5.702;2023-04-15T12:24:12;1.95;;;1.73;;
76786;SDS011;65739;51.482;5.702;2023-04-15T12:26:45;1.67;;;1.58;;
76786;SDS011;65739;51.482;5.702;2023-04-15T12:29:13;2.10;;;1.60;;
76786;SDS011;65739;51.482;5.702;2023-04-15T12:31:54;2.30;;;1.63;;
76786;SDS011;65739;51.482;5.702;2023-04-15T12:37:01;2.28;;;1.45;;
76786;SDS011;65739;51.482;5.702;2023-04-15T12:39:29;2.40;;;1.60;;
76786;SDS011;65739;51.482;5.702;2023-04-15T12:41:56;1.77;;;1.67;;
76786;SDS011;65739;51.482;5.702;2023-04-15T12:44:24;2.47;;;1.92;;
76786;SDS011;65739;51.482;5.702;2023-04-15T12:46:50;3.38;;;1.70;;
76786;SDS011;65739;51.482;5.702;2023-04-15T12:49:17;3.90;;;1.60;;
76786;SDS011;65739;51.482;5.702;2023-04-15T12:51:47;2.65;;;1.60;;
76786;SDS011;65739;51.482;5.702;2023-04-15T12:54:13;2.65;;;1.90;;
76786;SDS011;65739;51.482;5.702;2023-04-15T12:56:38;1.98;;;1.40;;
76786;SDS011;65739;51.482;5.702;2023-04-15T12:59:04;2.20;;;1.67;;
76786;SDS011;65739;51.482;5.702;2023-04-15T13:01:30;2.00;;;1.42;;
76786;SDS011;65739;51.482;5.702;2023-04-15T13:03:55;3.58;;;1.80;;
76786;SDS011;65739;51.482;5.702;2023-04-15T13:06:21;2.83;;;1.52;;
76786;SDS011;65739;51.482;5.702;2023-04-15T13:08:47;1.98;;;1.50;;
76786;SDS011;65739;51.482;5.702;2023-04-15T13:11:13;1.75;;;1.65;;
76786;SDS011;65739;51.482;5.702;2023-04-15T13:13:38;1.58;;;1.48;;
76786;SDS011;65739;51.482;5.702;2023-04-15T13:16:04;3.00;;;1.70;;
76786;SDS011;65739;51.482;5.702;2023-04-15T13:18:30;2.03;;;1.73;;
76786;SDS011;65739;51.482;5.702;2023-04-15T13:20:56;1.80;;;1.60;;
76786;SDS011;65739;51.482;5.702;2023-04-15T13:23:21;2.38;;;1.48;;
76786;SDS011;65739;51.482;5.702;2023-04-15T13:25:47;1.63;;;1.52;;
76786;SDS011;65739;51.482;5.702;2023-04-15T13:28:12;2.05;;;1.75;;
76786;SDS011;65739;51.482;5.702;2023-04-15T13:30:38;1.90;;;1.70;;
76786;SDS011;65739;51.482;5.702;2023-04-15T13:33:04;1.65;;;1.55;;
76786;SDS011;65739;51.482;5.702;2023-04-15T13:35:31;2.17;;;1.50;;
76786;SDS011;65739;51.482;5.702;2023-04-15T13:37:56;1.40;;;1.30;;
76786;SDS011;65739;51.482;5.702;2023-04-15T13:40:22;1.70;;;1.60;;
76786;SDS011;65739;51.482;5.702;2023-04-15T13:42:48;2.45;;;1.52;;
76786;SDS011;65739;51.482;5.702;2023-04-15T13:45:13;1.17;;;1.10;;
76786;SDS011;65739;51.482;5.702;2023-04-15T13:47:40;1.63;;;1.30;;
76786;SDS011;65739;51.482;5.702;2023-04-15T13:50:06;1.90;;;1.48;;
76786;SDS011;65739;51.482;5.702;2023-04-15T13:52:31;2.42;;;1.30;;
76786;SDS011;65739;51.482;5.702;2023-04-15T13:54:57;2.58;;;1.67;;
76786;SDS011;65739;51.482;5.702;2023-04-15T13:57:22;1.67;;;1.58;;
76786;SDS011;65739;51.482;5.702;2023-04-15T13:59:49;3.45;;;1.60;;
76786;SDS011;65739;51.482;5.702;2023-04-15T14:02:14;1.55;;;1.45;;
76786;SDS011;65739;51.482;5.702;2023-04-15T14:04:40;3.75;;;1.52;;
76786;SDS011;65739;51.482;5.702;2023-04-15T14:07:06;1.83;;;1.73;;
76786;SDS011;65739;51.482;5.702;2023-04-15T14:09:31;2.10;;;1.60;;
76786;SDS011;65739;51.482;5.702;2023-04-15T14:11:57;1.65;;;1.40;;
76786;SDS011;65739;51.482;5.702;2023-04-15T14:14:24;2.80;;;1.40;;
76786;SDS011;65739;51.482;5.702;2023-04-15T14:16:49;2.92;;;1.42;;
76786;SDS011;65739;51.482;5.702;2023-04-15T14:19:15;1.83;;;1.27;;
76786;SDS011;65739;51.482;5.702;2023-04-15T14:21:40;2.63;;;1.45;;
76786;SDS011;65739;51.482;5.702;2023-04-15T14:24:06;2.35;;;1.27;;
76786;SDS011;65739;51.482;5.702;2023-04-15T14:26:32;2.33;;;1.30;;
76786;SDS011;65739;51.482;5.702;2023-04-15T14:28:57;3.05;;;0.90;;
76786;SDS011;65739;51.482;5.702;2023-04-15T14:31:23;3.13;;;0.90;;
76786;SDS011;65739;51.482;5.702;2023-04-15T14:33:48;2.55;;;1.00;;
76786;SDS011;65739;51.482;5.702;2023-04-15T14:36:14;2.80;;;0.95;;
76786;SDS011;65739;51.482;5.702;2023-04-15T14:38:40;2.70;;;0.90;;
76786;SDS011;65739;51.482;5.702;2023-04-15T14:41:06;1.42;;;0.88;;
76786;SDS011;65739;51.482;5.702;2023-04-15T14:43:33;4.00;;;0.88;;
76786;SDS011;65739;51.482;5.702;2023-04-15T14:45:59;2.10;;;0.93;;
76786;SDS011;65739;51.482;5.702;2023-04-15T14:48:24;1.08;;;0.70;;
76786;SDS011;65739;51.482;5.702;2023-04-15T14:50:50;3.95;;;0.73;;
76786;SDS011;65739;51.482;5.702;2023-04-15T14:53:16;4.43;;;1.00;;
76786;SDS011;65739;51.482;5.702;2023-04-15T14:55:42;1.25;;;0.90;;
76786;SDS011;65739;51.482;5.702;2023-04-15T14:58:07;3.97;;;0.85;;
76786;SDS011;65739;51.482;5.702;2023-04-15T15:00:34;1.30;;;0.80;;
76786;SDS011;65739;51.482;5.702;2023-04-15T15:03:03;0.80;;;0.80;;
76786;SDS011;65739;51.482;5.702;2023-04-15T15:05:30;1.58;;;0.95;;
76786;SDS011;65739;51.482;5.702;2023-04-15T15:07:55;0.93;;;0.60;;